sensor_id;sensor_type;location;lat;lon;timestamp;temperature;humidity
38860;DHT22;24609;48.316;16.174;2023-02-20T00:00:26;4.70;99.90
38860;DHT22;24609;48.316;16.174;2023-02-20T00:02:52;4.80;99.90
38860;DHT22;24609;48.316;16.174;2023-02-20T00:05:18;4.70;99.90
38860;DHT22;24609;48.316;16.174;2023-02-20T00:07:44;4.70;99.90
38860;DHT22;24609;48.316;16.174;2023-02-20T00:10:10;4.70;99.90
38860;DHT22;24609;48.316;16.174;2023-02-20T00:12:36;4.70;99.90
38860;DHT22;24609;48.316;16.174;2023-02-20T00:15:02;4.70;99.90
38860;DHT22;24609;48.316;16.174;2023-02-20T00:17:28;4.80;99.90
38860;DHT22;24609;48.316;16.174;2023-02-20T00:19:54;4.80;99.90
38860;DHT22;24609;48.316;16.174;2023-02-20T00:22:21;4.70;99.90
38860;DHT22;24609;48.316;16.174;2023-02-20T00:24:47;4.80;99.90
38860;DHT22;24609;48.316;16.174;2023-02-20T00:27:14;4.80;99.90
38860;DHT22;24609;48.316;16.174;2023-02-20T00:29:39;4.90;99.90
38860;DHT22;24609;48.316;16.174;2023-02-20T00:32:05;4.90;99.90
38860;DHT22;24609;48.316;16.174;2023-02-20T00:34:31;4.90;99.90
38860;DHT22;24609;48.316;16.174;2023-02-20T00:36:57;5.00;99.90
38860;DHT22;24609;48.316;16.174;2023-02-20T00:39:22;5.00;99.90
38860;DHT22;24609;48.316;16.174;2023-02-20T00:41:48;5.00;99.90
38860;DHT22;24609;48.316;16.174;2023-02-20T00:44:14;5.00;99.90
38860;DHT22;24609;48.316;16.174;2023-02-20T00:46:40;5.00;99.90
38860;DHT22;24609;48.316;16.174;2023-02-20T00:49:05;4.90;99.90
38860;DHT22;24609;48.316;16.174;2023-02-20T00:51:31;4.90;99.90
38860;DHT22;24609;48.316;16.174;2023-02-20T00:53:58;4.80;99.90
38860;DHT22;24609;48.316;16.174;2023-02-20T00:56:24;4.80;99.90
38860;DHT22;24609;48.316;16.174;2023-02-20T00:58:49;4.70;99.90
38860;DHT22;24609;48.316;16.174;2023-02-20T01:01:15;4.60;99.90
38860;DHT22;24609;48.316;16.174;2023-02-20T01:03:42;4.50;99.90
38860;DHT22;24609;48.316;16.174;2023-02-20T01:06:08;4.50;99.90
38860;DHT22;24609;48.316;16.174;2023-02-20T01:08:34;4.50;99.90
38860;DHT22;24609;48.316;16.174;2023-02-20T01:10:59;4.50;99.90
38860;DHT22;24609;48.316;16.174;2023-02-20T01:13:25;4.40;99.90
38860;DHT22;24609;48.316;16.174;2023-02-20T01:15:51;4.40;99.90
38860;DHT22;24609;48.316;16.174;2023-02-20T01:18:17;4.40;99.90
38860;DHT22;24609;48.316;16.174;2023-02-20T01:20:43;4.40;99.90
38860;DHT22;24609;48.316;16.174;2023-02-20T01:23:09;4.30;99.90
38860;DHT22;24609;48.316;16.174;2023-02-20T01:25:35;4.40;99.90
38860;DHT22;24609;48.316;16.174;2023-02-20T01:28:00;4.30;99.90
38860;DHT22;24609;48.316;16.174;2023-02-20T01:30:26;4.40;99.90
38860;DHT22;24609;48.316;16.174;2023-02-20T01:32:52;4.40;99.90
38860;DHT22;24609;48.316;16.174;2023-02-20T01:35:18;4.30;99.90
38860;DHT22;24609;48.316;16.174;2023-02-20T01:37:43;4.30;99.90
38860;DHT22;24609;48.316;16.174;2023-02-20T01:40:19;4.30;99.90
38860;DHT22;24609;48.316;16.174;2023-02-20T01:42:49;4.30;99.90
38860;DHT22;24609;48.316;16.174;2023-02-20T01:47:50;4.30;99.90
38860;DHT22;24609;48.316;16.174;2023-02-20T01:50:18;4.30;99.90
38860;DHT22;24609;48.316;16.174;2023-02-20T01:52:49;4.30;99.90
38860;DHT22;24609;48.316;16.174;2023-02-20T01:55:26;4.30;99.90
38860;DHT22;24609;48.316;16.174;2023-02-20T01:58:00;4.30;99.90
38860;DHT22;24609;48.316;16.174;2023-02-20T02:00:27;4.30;99.90
38860;DHT22;24609;48.316;16.174;2023-02-20T02:03:20;4.20;99.90
38860;DHT22;24609;48.316;16.174;2023-02-20T02:05:47;4.30;99.90
38860;DHT22;24609;48.316;16.174;2023-02-20T02:08:15;4.40;99.90
38860;DHT22;24609;48.316;16.174;2023-02-20T02:13:13;4.20;99.90
38860;DHT22;24609;48.316;16.174;2023-02-20T02:15:39;4.20;99.90
38860;DHT22;24609;48.316;16.174;2023-02-20T02:18:32;4.20;99.90
38860;DHT22;24609;48.316;16.174;2023-02-20T02:37:33;4.70;99.90
38860;DHT22;24609;48.316;16.174;2023-02-20T02:40:41;4.80;99.90
38860;DHT22;24609;48.316;16.174;2023-02-20T02:43:19;4.90;99.90
38860;DHT22;24609;48.316;16.174;2023-02-20T02:45:55;5.00;99.90
38860;DHT22;24609;48.316;16.174;2023-02-20T02:48:27;5.00;99.90
38860;DHT22;24609;48.316;16.174;2023-02-20T02:51:11;5.00;99.90
38860;DHT22;24609;48.316;16.174;2023-02-20T02:53:38;5.00;99.90
38860;DHT22;24609;48.316;16.174;2023-02-20T02:56:04;5.00;99.90
38860;DHT22;24609;48.316;16.174;2023-02-20T02:58:46;5.10;99.90
38860;DHT22;24609;48.316;16.174;2023-02-20T03:01:14;5.10;99.90
38860;DHT22;24609;48.316;16.174;2023-02-20T03:03:43;5.10;99.90
38860;DHT22;24609;48.316;16.174;2023-02-20T03:06:16;5.00;99.90
38860;DHT22;24609;48.316;16.174;2023-02-20T03:09:00;5.00;99.90
38860;DHT22;24609;48.316;16.174;2023-02-20T03:11:29;5.00;99.90
38860;DHT22;24609;48.316;16.174;2023-02-20T03:14:18;4.90;99.90
38860;DHT22;24609;48.316;16.174;2023-02-20T03:19:39;4.90;99.90
38860;DHT22;24609;48.316;16.174;2023-02-20T03:22:17;4.80;99.90
38860;DHT22;24609;48.316;16.174;2023-02-20T03:24:45;4.80;99.90
38860;DHT22;24609;48.316;16.174;2023-02-20T03:30:06;4.90;99.90
38860;DHT22;24609;48.316;16.174;2023-02-20T03:32:33;5.00;99.90
38860;DHT22;24609;48.316;16.174;2023-02-20T03:35:18;5.00;99.90
38860;DHT22;24609;48.316;16.174;2023-02-20T03:38:06;4.90;99.90
38860;DHT22;24609;48.316;16.174;2023-02-20T03:40:51;4.80;99.90
38860;DHT22;24609;48.316;16.174;2023-02-20T03:43:37;4.70;99.90
38860;DHT22;24609;48.316;16.174;2023-02-20T03:46:12;4.70;99.90
38860;DHT22;24609;48.316;16.174;2023-02-20T03:49:21;4.80;99.90
38860;DHT22;24609;48.316;16.174;2023-02-20T03:51:40;4.80;99.90
38860;DHT22;24609;48.316;16.174;2023-02-20T03:54:25;4.90;99.90
38860;DHT22;24609;48.316;16.174;2023-02-20T03:56:56;4.90;99.90
38860;DHT22;24609;48.316;16.174;2023-02-20T04:02:42;4.90;99.90
38860;DHT22;24609;48.316;16.174;2023-02-20T04:05:24;4.90;99.90
38860;DHT22;24609;48.316;16.174;2023-02-20T04:07:58;4.90;99.90
38860;DHT22;24609;48.316;16.174;2023-02-20T04:10:34;4.90;99.90
38860;DHT22;24609;48.316;16.174;2023-02-20T04:13:01;4.90;99.90
38860;DHT22;24609;48.316;16.174;2023-02-20T04:15:28;5.00;99.90
38860;DHT22;24609;48.316;16.174;2023-02-20T04:18:04;5.00;99.90
38860;DHT22;24609;48.316;16.174;2023-02-20T04:20:32;5.10;99.90
38860;DHT22;24609;48.316;16.174;2023-02-20T04:23:04;5.20;99.90
38860;DHT22;24609;48.316;16.174;2023-02-20T04:26:00;5.20;99.90
38860;DHT22;24609;48.316;16.174;2023-02-20T04:28:27;5.30;99.90
38860;DHT22;24609;48.316;16.174;2023-02-20T04:30:53;5.30;99.90
38860;DHT22;24609;48.316;16.174;2023-02-20T04:33:20;5.20;99.90
38860;DHT22;24609;48.316;16.174;2023-02-20T04:35:46;5.10;99.90
38860;DHT22;24609;48.316;16.174;2023-02-20T04:38:12;5.10;99.90
38860;DHT22;24609;48.316;16.174;2023-02-20T04:40:38;5.00;99.90
38860;DHT22;24609;48.316;16.174;2023-02-20T04:43:04;5.00;99.90
38860;DHT22;24609;48.316;16.174;2023-02-20T04:45:30;5.00;99.90
38860;DHT22;24609;48.316;16.174;2023-02-20T04:47:55;5.00;99.90
38860;DHT22;24609;48.316;16.174;2023-02-20T04:50:27;5.00;99.90
38860;DHT22;24609;48.316;16.174;2023-02-20T04:52:53;5.00;99.90
38860;DHT22;24609;48.316;16.174;2023-02-20T04:55:19;5.00;99.90
38860;DHT22;24609;48.316;16.174;2023-02-20T04:57:48;5.00;99.90
38860;DHT22;24609;48.316;16.174;2023-02-20T05:00:16;5.00;99.90
38860;DHT22;24609;48.316;16.174;2023-02-20T05:02:41;5.00;99.90
38860;DHT22;24609;48.316;16.174;2023-02-20T05:05:16;5.00;99.90
38860;DHT22;24609;48.316;16.174;2023-02-20T05:07:42;5.00;99.90
38860;DHT22;24609;48.316;16.174;2023-02-20T05:10:11;4.90;99.90
38860;DHT22;24609;48.316;16.174;2023-02-20T05:12:37;4.90;99.90
38860;DHT22;24609;48.316;16.174;2023-02-20T05:15:03;4.80;99.90
38860;DHT22;24609;48.316;16.174;2023-02-20T05:17:28;4.80;99.90
38860;DHT22;24609;48.316;16.174;2023-02-20T05:19:54;4.70;99.90
38860;DHT22;24609;48.316;16.174;2023-02-20T05:22:20;4.70;99.90
38860;DHT22;24609;48.316;16.174;2023-02-20T05:24:48;4.60;99.90
38860;DHT22;24609;48.316;16.174;2023-02-20T05:27:16;4.60;99.90
38860;DHT22;24609;48.316;16.174;2023-02-20T05:29:46;4.50;99.90
38860;DHT22;24609;48.316;16.174;2023-02-20T05:32:13;4.50;99.90
38860;DHT22;24609;48.316;16.174;2023-02-20T05:34:39;4.50;99.90
38860;DHT22;24609;48.316;16.174;2023-02-20T05:37:05;4.40;99.90
38860;DHT22;24609;48.316;16.174;2023-02-20T05:39:31;4.40;99.90
38860;DHT22;24609;48.316;16.174;2023-02-20T05:41:56;4.40;99.90
38860;DHT22;24609;48.316;16.174;2023-02-20T05:44:23;4.30;99.90
38860;DHT22;24609;48.316;16.174;2023-02-20T05:46:49;4.40;99.90
38860;DHT22;24609;48.316;16.174;2023-02-20T05:49:16;4.40;99.90
38860;DHT22;24609;48.316;16.174;2023-02-20T05:51:42;4.40;99.90
38860;DHT22;24609;48.316;16.174;2023-02-20T05:54:08;4.40;99.90
38860;DHT22;24609;48.316;16.174;2023-02-20T05:56:34;4.50;99.90
38860;DHT22;24609;48.316;16.174;2023-02-20T05:59:00;4.50;99.90
38860;DHT22;24609;48.316;16.174;2023-02-20T06:01:28;4.60;99.90
38860;DHT22;24609;48.316;16.174;2023-02-20T06:03:54;4.60;99.90
38860;DHT22;24609;48.316;16.174;2023-02-20T06:06:20;4.60;99.90
38860;DHT22;24609;48.316;16.174;2023-02-20T06:08:47;4.60;99.90
38860;DHT22;24609;48.316;16.174;2023-02-20T06:11:14;4.60;99.90
38860;DHT22;24609;48.316;16.174;2023-02-20T06:13:41;4.70;99.90
38860;DHT22;24609;48.316;16.174;2023-02-20T06:16:07;4.70;99.90
38860;DHT22;24609;48.316;16.174;2023-02-20T06:18:37;4.70;99.90
38860;DHT22;24609;48.316;16.174;2023-02-20T06:21:05;4.80;99.90
38860;DHT22;24609;48.316;16.174;2023-02-20T06:23:31;4.80;99.90
38860;DHT22;24609;48.316;16.174;2023-02-20T06:25:56;4.80;99.90
38860;DHT22;24609;48.316;16.174;2023-02-20T06:28:22;4.90;99.90
38860;DHT22;24609;48.316;16.174;2023-02-20T06:30:48;4.90;99.90
38860;DHT22;24609;48.316;16.174;2023-02-20T06:33:13;4.90;99.90
38860;DHT22;24609;48.316;16.174;2023-02-20T06:35:39;4.90;99.90
38860;DHT22;24609;48.316;16.174;2023-02-20T06:38:05;5.00;99.90
38860;DHT22;24609;48.316;16.174;2023-02-20T06:40:30;5.10;99.90
38860;DHT22;24609;48.316;16.174;2023-02-20T06:42:56;5.20;99.90
38860;DHT22;24609;48.316;16.174;2023-02-20T06:45:21;5.30;99.90
38860;DHT22;24609;48.316;16.174;2023-02-20T06:47:47;5.40;99.90
38860;DHT22;24609;48.316;16.174;2023-02-20T06:50:13;5.40;99.90
38860;DHT22;24609;48.316;16.174;2023-02-20T06:52:38;5.50;99.90
38860;DHT22;24609;48.316;16.174;2023-02-20T06:55:04;5.70;99.90
38860;DHT22;24609;48.316;16.174;2023-02-20T06:57:31;5.90;99.90
38860;DHT22;24609;48.316;16.174;2023-02-20T06:59:57;6.10;99.90
38860;DHT22;24609;48.316;16.174;2023-02-20T07:02:23;6.10;99.90
38860;DHT22;24609;48.316;16.174;2023-02-20T07:04:49;6.20;99.90
38860;DHT22;24609;48.316;16.174;2023-02-20T07:07:15;6.30;99.90
38860;DHT22;24609;48.316;16.174;2023-02-20T07:09:40;6.50;99.90
38860;DHT22;24609;48.316;16.174;2023-02-20T07:12:07;6.80;99.90
38860;DHT22;24609;48.316;16.174;2023-02-20T07:14:32;7.10;99.90
38860;DHT22;24609;48.316;16.174;2023-02-20T07:16:58;7.20;99.90
38860;DHT22;24609;48.316;16.174;2023-02-20T07:19:23;7.30;99.90
38860;DHT22;24609;48.316;16.174;2023-02-20T07:21:49;7.30;99.90
38860;DHT22;24609;48.316;16.174;2023-02-20T07:24:16;7.40;99.90
38860;DHT22;24609;48.316;16.174;2023-02-20T07:26:41;7.60;99.90
38860;DHT22;24609;48.316;16.174;2023-02-20T07:29:07;7.70;99.90
38860;DHT22;24609;48.316;16.174;2023-02-20T07:31:33;8.00;99.90
38860;DHT22;24609;48.316;16.174;2023-02-20T07:33:59;8.30;99.90
38860;DHT22;24609;48.316;16.174;2023-02-20T07:36:25;8.90;99.90
38860;DHT22;24609;48.316;16.174;2023-02-20T07:38:56;9.10;99.90
38860;DHT22;24609;48.316;16.174;2023-02-20T07:41:27;8.90;99.90
38860;DHT22;24609;48.316;16.174;2023-02-20T07:43:57;8.80;99.90
38860;DHT22;24609;48.316;16.174;2023-02-20T07:46:23;8.70;99.90
38860;DHT22;24609;48.316;16.174;2023-02-20T07:48:49;8.70;99.90
38860;DHT22;24609;48.316;16.174;2023-02-20T07:51:14;8.80;99.90
38860;DHT22;24609;48.316;16.174;2023-02-20T07:53:50;8.80;99.90
38860;DHT22;24609;48.316;16.174;2023-02-20T07:56:16;8.70;99.90
38860;DHT22;24609;48.316;16.174;2023-02-20T07:58:42;8.80;99.90
38860;DHT22;24609;48.316;16.174;2023-02-20T08:01:08;8.80;99.90
38860;DHT22;24609;48.316;16.174;2023-02-20T08:03:34;8.80;99.90
38860;DHT22;24609;48.316;16.174;2023-02-20T08:05:59;8.80;99.90
38860;DHT22;24609;48.316;16.174;2023-02-20T08:08:25;8.70;99.90
38860;DHT22;24609;48.316;16.174;2023-02-20T08:10:51;8.80;99.90
38860;DHT22;24609;48.316;16.174;2023-02-20T08:13:17;8.90;99.90
38860;DHT22;24609;48.316;16.174;2023-02-20T08:15:43;9.20;99.90
38860;DHT22;24609;48.316;16.174;2023-02-20T08:18:13;10.10;99.90
38860;DHT22;24609;48.316;16.174;2023-02-20T08:20:39;10.30;99.90
38860;DHT22;24609;48.316;16.174;2023-02-20T08:23:05;10.30;99.90
38860;DHT22;24609;48.316;16.174;2023-02-20T08:25:30;10.90;99.90
38860;DHT22;24609;48.316;16.174;2023-02-20T08:27:57;11.40;99.90
38860;DHT22;24609;48.316;16.174;2023-02-20T08:30:25;12.50;99.90
38860;DHT22;24609;48.316;16.174;2023-02-20T08:32:52;11.90;99.90
38860;DHT22;24609;48.316;16.174;2023-02-20T08:35:18;11.40;99.90
38860;DHT22;24609;48.316;16.174;2023-02-20T08:37:45;11.00;99.90
38860;DHT22;24609;48.316;16.174;2023-02-20T08:40:11;11.60;99.90
38860;DHT22;24609;48.316;16.174;2023-02-20T08:42:37;11.10;99.90
38860;DHT22;24609;48.316;16.174;2023-02-20T08:45:04;11.00;99.90
38860;DHT22;24609;48.316;16.174;2023-02-20T08:47:32;12.10;99.90
38860;DHT22;24609;48.316;16.174;2023-02-20T08:49:58;13.30;99.90
38860;DHT22;24609;48.316;16.174;2023-02-20T08:52:23;13.20;99.90
38860;DHT22;24609;48.316;16.174;2023-02-20T08:54:49;13.60;99.90
38860;DHT22;24609;48.316;16.174;2023-02-20T08:57:15;14.40;99.90
38860;DHT22;24609;48.316;16.174;2023-02-20T08:59:41;14.60;99.90
38860;DHT22;24609;48.316;16.174;2023-02-20T09:02:18;14.40;99.90
38860;DHT22;24609;48.316;16.174;2023-02-20T09:04:44;12.80;99.90
38860;DHT22;24609;48.316;16.174;2023-02-20T09:07:12;12.10;99.90
38860;DHT22;24609;48.316;16.174;2023-02-20T09:09:38;11.80;99.90
38860;DHT22;24609;48.316;16.174;2023-02-20T09:12:04;12.20;99.90
38860;DHT22;24609;48.316;16.174;2023-02-20T09:14:30;13.60;99.90
38860;DHT22;24609;48.316;16.174;2023-02-20T09:16:56;13.80;99.90
38860;DHT22;24609;48.316;16.174;2023-02-20T09:19:21;12.90;99.90
38860;DHT22;24609;48.316;16.174;2023-02-20T09:21:49;12.30;99.90
38860;DHT22;24609;48.316;16.174;2023-02-20T09:24:15;11.80;99.90
38860;DHT22;24609;48.316;16.174;2023-02-20T09:26:41;11.40;99.90
38860;DHT22;24609;48.316;16.174;2023-02-20T09:29:06;11.10;99.90
38860;DHT22;24609;48.316;16.174;2023-02-20T09:31:32;10.90;99.90
38860;DHT22;24609;48.316;16.174;2023-02-20T09:33:57;10.80;99.90
38860;DHT22;24609;48.316;16.174;2023-02-20T09:36:23;10.70;99.90
38860;DHT22;24609;48.316;16.174;2023-02-20T09:38:49;10.70;99.90
38860;DHT22;24609;48.316;16.174;2023-02-20T09:44:44;10.70;99.90
38860;DHT22;24609;48.316;16.174;2023-02-20T09:47:46;10.70;99.90
38860;DHT22;24609;48.316;16.174;2023-02-20T09:50:41;10.80;99.90
38860;DHT22;24609;48.316;16.174;2023-02-20T09:53:19;10.90;99.90
38860;DHT22;24609;48.316;16.174;2023-02-20T09:55:46;10.80;99.90
38860;DHT22;24609;48.316;16.174;2023-02-20T10:01:07;10.70;99.90
38860;DHT22;24609;48.316;16.174;2023-02-20T10:03:35;10.80;99.90
38860;DHT22;24609;48.316;16.174;2023-02-20T10:06:14;10.80;99.90
38860;DHT22;24609;48.316;16.174;2023-02-20T10:08:40;10.80;99.90
38860;DHT22;24609;48.316;16.174;2023-02-20T10:11:10;11.00;99.90
38860;DHT22;24609;48.316;16.174;2023-02-20T10:17:02;11.20;99.90
38860;DHT22;24609;48.316;16.174;2023-02-20T10:22:19;11.70;99.90
38860;DHT22;24609;48.316;16.174;2023-02-20T10:29:53;11.60;99.90
38860;DHT22;24609;48.316;16.174;2023-02-20T10:32:31;11.50;99.90
38860;DHT22;24609;48.316;16.174;2023-02-20T10:35:10;11.40;99.90
38860;DHT22;24609;48.316;16.174;2023-02-20T10:37:42;11.40;99.90
38860;DHT22;24609;48.316;16.174;2023-02-20T10:43:42;11.40;99.90
38860;DHT22;24609;48.316;16.174;2023-02-20T10:46:38;11.60;99.90
38860;DHT22;24609;48.316;16.174;2023-02-20T10:49:11;11.50;99.90
38860;DHT22;24609;48.316;16.174;2023-02-20T10:51:45;11.60;99.90
38860;DHT22;24609;48.316;16.174;2023-02-20T10:54:20;11.70;99.90
38860;DHT22;24609;48.316;16.174;2023-02-20T11:02:20;12.70;99.90
38860;DHT22;24609;48.316;16.174;2023-02-20T11:04:55;12.50;99.90
38860;DHT22;24609;48.316;16.174;2023-02-20T11:07:22;12.40;99.90
38860;DHT22;24609;48.316;16.174;2023-02-20T11:09:48;12.20;99.90
38860;DHT22;24609;48.316;16.174;2023-02-20T11:12:36;12.20;99.90
38860;DHT22;24609;48.316;16.174;2023-02-20T11:15:09;12.20;99.90
38860;DHT22;24609;48.316;16.174;2023-02-20T11:17:38;12.50;99.90
38860;DHT22;24609;48.316;16.174;2023-02-20T11:20:36;12.50;99.90
38860;DHT22;24609;48.316;16.174;2023-02-20T11:22:51;12.30;99.90
38860;DHT22;24609;48.316;16.174;2023-02-20T11:25:25;12.10;99.90
38860;DHT22;24609;48.316;16.174;2023-02-20T11:27:54;12.00;99.90
38860;DHT22;24609;48.316;16.174;2023-02-20T11:33:04;12.10;99.90
38860;DHT22;24609;48.316;16.174;2023-02-20T11:35:33;12.00;99.90
38860;DHT22;24609;48.316;16.174;2023-02-20T11:40:42;12.20;99.90
38860;DHT22;24609;48.316;16.174;2023-02-20T11:45:45;12.00;99.90
38860;DHT22;24609;48.316;16.174;2023-02-20T11:48:14;12.30;99.90
38860;DHT22;24609;48.316;16.174;2023-02-20T11:55:44;13.00;99.90
38860;DHT22;24609;48.316;16.174;2023-02-20T11:58:21;12.90;99.90
38860;DHT22;24609;48.316;16.174;2023-02-20T12:00:51;13.10;99.90
38860;DHT22;24609;48.316;16.174;2023-02-20T12:03:24;13.60;99.90
38860;DHT22;24609;48.316;16.174;2023-02-20T12:05:50;15.90;99.90
38860;DHT22;24609;48.316;16.174;2023-02-20T12:11:09;13.80;99.90
38860;DHT22;24609;48.316;16.174;2023-02-20T12:13:39;14.80;99.90
38860;DHT22;24609;48.316;16.174;2023-02-20T12:27:01;12.60;99.90
38860;DHT22;24609;48.316;16.174;2023-02-20T12:35:32;12.90;99.90
38860;DHT22;24609;48.316;16.174;2023-02-20T12:52:12;12.70;99.90
38860;DHT22;24609;48.316;16.174;2023-02-20T12:54:52;12.50;99.90
38860;DHT22;24609;48.316;16.174;2023-02-20T13:00:39;13.20;99.90
38860;DHT22;24609;48.316;16.174;2023-02-20T13:05:45;12.80;99.90
38860;DHT22;24609;48.316;16.174;2023-02-20T13:10:49;12.80;99.90
38860;DHT22;24609;48.316;16.174;2023-02-20T13:13:17;13.00;99.90
38860;DHT22;24609;48.316;16.174;2023-02-20T13:15:52;12.90;99.90
38860;DHT22;24609;48.316;16.174;2023-02-20T13:20:52;13.00;99.90
38860;DHT22;24609;48.316;16.174;2023-02-20T13:25:46;13.00;99.90
38860;DHT22;24609;48.316;16.174;2023-02-20T13:47:26;12.70;99.90
38860;DHT22;24609;48.316;16.174;2023-02-20T13:49:53;12.70;99.90
38860;DHT22;24609;48.316;16.174;2023-02-20T13:58:08;12.70;99.90
38860;DHT22;24609;48.316;16.174;2023-02-20T14:00:50;12.80;99.90
38860;DHT22;24609;48.316;16.174;2023-02-20T14:05:45;13.10;99.90
38860;DHT22;24609;48.316;16.174;2023-02-20T14:08:17;13.20;99.90
38860;DHT22;24609;48.316;16.174;2023-02-20T14:10:43;13.20;99.90
38860;DHT22;24609;48.316;16.174;2023-02-20T14:13:22;12.90;99.90
38860;DHT22;24609;48.316;16.174;2023-02-20T14:15:55;13.10;99.90
38860;DHT22;24609;48.316;16.174;2023-02-20T14:18:32;13.10;99.90
38860;DHT22;24609;48.316;16.174;2023-02-20T14:21:17;13.20;99.90
38860;DHT22;24609;48.316;16.174;2023-02-20T14:23:45;13.40;99.90
38860;DHT22;24609;48.316;16.174;2023-02-20T14:26:32;13.60;99.90
38860;DHT22;24609;48.316;16.174;2023-02-20T14:28:59;13.50;99.90
38860;DHT22;24609;48.316;16.174;2023-02-20T14:31:33;13.20;99.90
38860;DHT22;24609;48.316;16.174;2023-02-20T14:37:03;12.90;99.90
38860;DHT22;24609;48.316;16.174;2023-02-20T14:39:56;12.80;99.90
38860;DHT22;24609;48.316;16.174;2023-02-20T14:42:27;12.90;99.90
38860;DHT22;24609;48.316;16.174;2023-02-20T14:45:05;12.80;99.90
38860;DHT22;24609;48.316;16.174;2023-02-20T14:47:31;12.80;99.90
38860;DHT22;24609;48.316;16.174;2023-02-20T14:50:16;12.70;99.90
38860;DHT22;24609;48.316;16.174;2023-02-20T14:52:42;12.70;99.90
38860;DHT22;24609;48.316;16.174;2023-02-20T14:55:16;12.60;99.90
38860;DHT22;24609;48.316;16.174;2023-02-20T14:57:42;12.70;99.90
38860;DHT22;24609;48.316;16.174;2023-02-20T15:00:23;12.60;99.90
38860;DHT22;24609;48.316;16.174;2023-02-20T15:02:51;12.60;99.90
38860;DHT22;24609;48.316;16.174;2023-02-20T15:05:19;12.60;99.90
38860;DHT22;24609;48.316;16.174;2023-02-20T15:07:50;12.60;99.90
38860;DHT22;24609;48.316;16.174;2023-02-20T15:10:43;12.50;99.90
38860;DHT22;24609;48.316;16.174;2023-02-20T15:13:22;12.50;99.90
38860;DHT22;24609;48.316;16.174;2023-02-20T15:16:07;12.50;99.90
38860;DHT22;24609;48.316;16.174;2023-02-20T15:18:42;12.50;99.90
38860;DHT22;24609;48.316;16.174;2023-02-20T15:21:09;12.50;99.90
38860;DHT22;24609;48.316;16.174;2023-02-20T15:23:41;12.60;99.90
38860;DHT22;24609;48.316;16.174;2023-02-20T15:26:30;12.50;99.90
38860;DHT22;24609;48.316;16.174;2023-02-20T15:29:25;12.40;99.90
38860;DHT22;24609;48.316;16.174;2023-02-20T15:31:57;12.30;99.90
38860;DHT22;24609;48.316;16.174;2023-02-20T15:34:35;12.30;99.90
38860;DHT22;24609;48.316;16.174;2023-02-20T15:37:29;12.20;99.90
38860;DHT22;24609;48.316;16.174;2023-02-20T15:39:55;12.20;99.90
38860;DHT22;24609;48.316;16.174;2023-02-20T15:42:30;12.10;99.90
38860;DHT22;24609;48.316;16.174;2023-02-20T15:44:55;12.00;99.90
38860;DHT22;24609;48.316;16.174;2023-02-20T15:47:21;11.80;99.90
38860;DHT22;24609;48.316;16.174;2023-02-20T15:49:46;11.70;99.90
38860;DHT22;24609;48.316;16.174;2023-02-20T15:52:16;11.80;99.90
38860;DHT22;24609;48.316;16.174;2023-02-20T15:54:46;11.80;99.90
38860;DHT22;24609;48.316;16.174;2023-02-20T15:57:16;11.70;99.90
38860;DHT22;24609;48.316;16.174;2023-02-20T15:59:43;11.60;99.90
38860;DHT22;24609;48.316;16.174;2023-02-20T16:02:13;11.60;99.90
38860;DHT22;24609;48.316;16.174;2023-02-20T16:04:39;11.50;99.90
38860;DHT22;24609;48.316;16.174;2023-02-20T16:07:05;11.50;99.90
38860;DHT22;24609;48.316;16.174;2023-02-20T16:09:31;11.50;99.90
38860;DHT22;24609;48.316;16.174;2023-02-20T16:11:57;11.40;99.90
38860;DHT22;24609;48.316;16.174;2023-02-20T16:14:22;11.30;99.90
38860;DHT22;24609;48.316;16.174;2023-02-20T16:16:50;11.40;99.90
38860;DHT22;24609;48.316;16.174;2023-02-20T16:19:20;11.30;99.90
38860;DHT22;24609;48.316;16.174;2023-02-20T16:21:46;11.30;99.90
38860;DHT22;24609;48.316;16.174;2023-02-20T16:24:12;11.20;99.90
38860;DHT22;24609;48.316;16.174;2023-02-20T16:26:40;11.20;99.90
38860;DHT22;24609;48.316;16.174;2023-02-20T16:29:11;11.10;99.90
38860;DHT22;24609;48.316;16.174;2023-02-20T16:34:24;10.90;99.90
38860;DHT22;24609;48.316;16.174;2023-02-20T16:36:51;10.90;99.90
38860;DHT22;24609;48.316;16.174;2023-02-20T16:39:17;10.90;99.90
38860;DHT22;24609;48.316;16.174;2023-02-20T16:41:43;10.90;99.90
38860;DHT22;24609;48.316;16.174;2023-02-20T16:44:35;10.80;99.90
38860;DHT22;24609;48.316;16.174;2023-02-20T16:47:00;10.80;99.90
38860;DHT22;24609;48.316;16.174;2023-02-20T16:49:26;10.70;99.90
38860;DHT22;24609;48.316;16.174;2023-02-20T16:51:52;10.70;99.90
38860;DHT22;24609;48.316;16.174;2023-02-20T16:54:26;10.60;99.90
38860;DHT22;24609;48.316;16.174;2023-02-20T16:56:52;10.80;99.90
38860;DHT22;24609;48.316;16.174;2023-02-20T16:59:18;10.70;99.90
38860;DHT22;24609;48.316;16.174;2023-02-20T17:01:46;10.60;99.90
38860;DHT22;24609;48.316;16.174;2023-02-20T17:04:12;10.60;99.90
38860;DHT22;24609;48.316;16.174;2023-02-20T17:06:40;10.60;99.90
38860;DHT22;24609;48.316;16.174;2023-02-20T17:09:06;10.60;99.90
38860;DHT22;24609;48.316;16.174;2023-02-20T17:11:31;10.60;99.90
38860;DHT22;24609;48.316;16.174;2023-02-20T17:13:57;10.60;99.90
38860;DHT22;24609;48.316;16.174;2023-02-20T17:16:23;10.50;99.90
38860;DHT22;24609;48.316;16.174;2023-02-20T17:18:48;10.50;99.90
38860;DHT22;24609;48.316;16.174;2023-02-20T17:21:14;10.50;99.90
38860;DHT22;24609;48.316;16.174;2023-02-20T17:23:40;10.60;99.90
38860;DHT22;24609;48.316;16.174;2023-02-20T17:26:07;10.50;99.90
38860;DHT22;24609;48.316;16.174;2023-02-20T17:28:33;10.50;99.90
38860;DHT22;24609;48.316;16.174;2023-02-20T17:31:00;10.50;99.90
38860;DHT22;24609;48.316;16.174;2023-02-20T17:33:26;10.40;99.90
38860;DHT22;24609;48.316;16.174;2023-02-20T17:35:52;10.40;99.90
38860;DHT22;24609;48.316;16.174;2023-02-20T17:38:17;10.40;99.90
38860;DHT22;24609;48.316;16.174;2023-02-20T17:40:43;10.50;99.90
38860;DHT22;24609;48.316;16.174;2023-02-20T17:43:09;10.40;99.90
38860;DHT22;24609;48.316;16.174;2023-02-20T17:45:35;10.40;99.90
38860;DHT22;24609;48.316;16.174;2023-02-20T17:48:00;10.30;99.90
38860;DHT22;24609;48.316;16.174;2023-02-20T17:50:29;10.30;99.90
38860;DHT22;24609;48.316;16.174;2023-02-20T17:52:55;10.50;99.90
38860;DHT22;24609;48.316;16.174;2023-02-20T17:55:24;10.60;99.90
38860;DHT22;24609;48.316;16.174;2023-02-20T17:57:50;10.40;99.90
38860;DHT22;24609;48.316;16.174;2023-02-20T18:00:16;10.60;99.90
38860;DHT22;24609;48.316;16.174;2023-02-20T18:02:42;10.50;99.90
38860;DHT22;24609;48.316;16.174;2023-02-20T18:05:08;10.40;99.90
38860;DHT22;24609;48.316;16.174;2023-02-20T18:07:33;10.30;99.90